Orange City, Florida
Current Conditions -  °F | °C
As of 5:53 PM on Tuesday 27 Jan 2015 (Local Time) from KSFB Reporting Station
Clear Clear  
Wind Chill: 63°   Ceiling: Unl
Heat Index: 63°   Visibility: 10mi
Dew Point: 45°   Wind: 16mph
Humidity: 52%   Direction: 270°W
Pressure: 29.92"   Gusts: 25mph
Location:  28.95°N, 81.3°W
Report Text: KSFB 272253Z 27014G22KT 10SM CLR 17/07 A2992 RMK AO2 PK WND 28026/2156 SLP130 T01720072
Loading
Personal Weather Stations






























Interactive Weather Map New forecast layout! Learn more

10-Day Weather Forecast

Advertisements
Track Severe Weather on mobile